Time;durP1;ratioP1;P1;durP2;ratioP2;P2;SDS_P1;SDS_P2;PMS_P1;PMS_P2;Temp;Humidity;BMP_temperature;BMP_pressure;BME280_temperature;BME280_humidity;BME280_pressure;Samples;Min_cycle;Max_cycle;Signal;HPM_P1;HPM_P2
2022/01/31 00:00:48;;;;;;;16.80;4.97;;;;;;;4.35;66.67;99667.13;5069531;28;20164;-73
2022/01/31 00:03:13;;;;;;;21.98;5.00;;;;;;;4.33;66.96;99660.25;5069521;28;20089;-72
2022/01/31 00:05:38;;;;;;;28.95;6.30;;;;;;;4.35;66.59;99643.66;5068702;28;20577;-74
2022/01/31 00:08:04;;;;;;;10.38;4.65;;;;;;;4.34;66.82;99643.72;5069930;28;20040;-72
2022/01/31 00:10:31;;;;;;;16.40;5.88;;;;;;;4.35;66.40;99619.31;5067817;28;20037;-73
2022/01/31 00:15:23;;;;;;;15.18;4.65;;;;;;;4.33;66.90;99590.63;5068764;28;20032;-73
2022/01/31 00:17:48;;;;;;;17.65;4.95;;;;;;;4.31;67.31;99592.47;5069241;28;20033;-72
2022/01/31 00:20:14;;;;;;;19.65;5.20;;;;;;;4.29;67.36;99561.19;5069752;28;20025;-72
2022/01/31 00:22:39;;;;;;;10.00;3.78;;;;;;;4.23;67.54;99556.13;5084399;28;20048;-71
2022/01/31 00:25:05;;;;;;;12.60;4.82;;;;;;;4.19;67.62;99551.88;5069026;28;20117;-73
2022/01/31 00:27:30;;;;;;;18.75;4.25;;;;;;;4.17;67.90;99558.03;5068754;28;20090;-72
2022/01/31 00:29:56;;;;;;;11.95;4.10;;;;;;;4.18;67.85;99573.63;5058938;28;20044;-71
2022/01/31 00:32:21;;;;;;;16.83;5.15;;;;;;;4.16;68.10;99579.78;5068487;28;20025;-71
2022/01/31 00:34:46;;;;;;;13.80;4.70;;;;;;;4.17;67.74;99553.69;5068531;28;20028;-71
2022/01/31 00:37:12;;;;;;;16.13;5.38;;;;;;;4.21;68.11;99555.31;5069567;28;20040;-71
2022/01/31 00:39:37;;;;;;;13.63;4.65;;;;;;;4.23;68.38;99552.66;5068945;28;20049;-71
2022/01/31 00:42:05;;;;;;;13.75;4.88;;;;;;;4.23;68.50;99531.78;5069086;28;20195;-71
2022/01/31 00:44:53;;;;;;;20.23;4.97;;;;;;;4.24;68.44;99536.97;5067471;28;20040;-72
2022/01/31 00:47:23;;;;;;;13.65;5.85;;;;;;;4.25;68.34;99514.31;5058989;28;20075;-72
2022/01/31 00:49:51;;;;;;;11.88;4.57;;;;;;;4.25;68.22;99507.34;5048740;28;20051;-72
2022/01/31 00:52:17;;;;;;;17.13;4.97;;;;;;;4.26;68.58;99508.22;5048775;28;20040;-71
2022/01/31 00:54:42;;;;;;;16.35;4.70;;;;;;;4.27;68.53;99502.09;5047867;28;20037;-69
2022/01/31 00:57:08;;;;;;;18.23;5.30;;;;;;;4.28;68.68;99489.03;5047875;28;20036;-71
2022/01/31 00:59:33;;;;;;;11.68;4.00;;;;;;;4.27;68.32;99486.44;5049225;28;20037;-72
2022/01/31 01:01:58;;;;;;;12.05;4.88;;;;;;;4.28;68.47;99481.19;5047695;28;20427;-71
2022/01/31 01:04:24;;;;;;;23.13;9.13;;;;;;;4.33;68.72;99468.00;5048281;28;20086;-72
2022/01/31 01:06:49;;;;;;;16.50;4.75;;;;;;;4.33;68.56;99460.16;5046306;28;20116;-72
2022/01/31 01:09:15;;;;;;;19.45;4.78;;;;;;;4.30;68.45;99442.84;5048477;28;20120;-71
2022/01/31 01:11:40;;;;;;;16.25;4.85;;;;;;;4.33;68.46;99441.91;5048188;28;20068;-71
2022/01/31 01:14:06;;;;;;;12.88;3.97;;;;;;;4.34;68.08;99430.56;5048700;28;20102;-71
2022/01/31 01:16:32;;;;;;;11.50;4.75;;;;;;;4.30;68.21;99402.84;5046951;28;20033;-71
2022/01/31 01:18:57;;;;;;;36.13;7.00;;;;;;;4.29;68.61;99390.72;5048043;28;20044;-72
2022/01/31 01:21:22;;;;;;;18.13;4.70;;;;;;;4.26;68.15;99373.41;5048292;28;20147;-71
2022/01/31 01:23:48;;;;;;;15.77;4.82;;;;;;;4.31;67.98;99357.59;5047822;28;20056;-71
2022/01/31 01:26:13;;;;;;;12.80;5.28;;;;;;;4.36;67.90;99342.66;5047464;28;20041;-70
2022/01/31 01:28:39;;;;;;;13.95;4.15;;;;;;;4.38;67.74;99355.66;5047622;28;20037;-73
2022/01/31 01:31:04;;;;;;;11.93;4.55;;;;;;;4.39;67.81;99358.22;5064489;28;20029;-74
2022/01/31 01:33:37;;;;;;;13.45;4.72;;;;;;;4.41;67.96;99345.13;5066677;28;20063;-73
2022/01/31 01:36:03;;;;;;;21.70;5.50;;;;;;;4.42;67.89;99329.41;5061938;28;20059;-73
2022/01/31 01:38:30;;;;;;;19.38;4.57;;;;;;;4.45;68.40;99326.69;5058840;28;20030;-72
2022/01/31 01:40:57;;;;;;;20.00;5.40;;;;;;;4.44;68.62;99325.00;5064209;28;20087;-72
2022/01/31 01:43:23;;;;;;;15.52;4.22;;;;;;;4.40;68.83;99312.94;5055151;28;20029;-73
2022/01/31 01:45:52;;;;;;;23.58;5.80;;;;;;;4.38;68.85;99306.94;5065230;28;20109;-73
2022/01/31 01:48:17;;;;;;;21.77;5.75;;;;;;;4.37;68.59;99293.94;5067653;28;20077;-73
2022/01/31 01:50:43;;;;;;;12.90;4.20;;;;;;;4.38;69.41;99283.44;5067522;28;20043;-72
2022/01/31 01:53:09;;;;;;;18.65;5.60;;;;;;;4.37;69.33;99268.69;5067993;28;20032;-72
2022/01/31 01:55:35;;;;;;;11.68;3.72;;;;;;;4.37;70.17;99263.47;5063765;28;20119;-72
2022/01/31 01:58:00;;;;;;;14.38;4.10;;;;;;;4.34;71.41;99258.34;5067231;28;20131;-72
2022/01/31 02:00:27;;;;;;;34.63;4.70;;;;;;;4.21;72.55;99252.66;5061483;28;20041;-73
2022/01/31 02:02:55;;;;;;;13.77;3.95;;;;;;;4.13;73.30;99228.56;5056910;28;20430;-73
2022/01/31 02:05:22;;;;;;;17.02;4.60;;;;;;;4.05;74.11;99226.19;5064083;28;20611;-72
2022/01/31 02:07:47;;;;;;;15.07;4.50;;;;;;;4.02;73.88;99228.06;5067283;28;20040;-73
2022/01/31 02:10:15;;;;;;;16.10;5.50;;;;;;;4.05;74.17;99220.13;5037778;28;20101;-72
2022/01/31 02:12:43;;;;;;;21.80;5.25;;;;;;;4.05;74.00;99209.72;5080922;28;20065;-73
2022/01/31 02:15:10;;;;;;;14.98;4.28;;;;;;;3.96;75.20;99205.63;5066374;28;20037;-71
2022/01/31 02:17:36;;;;;;;14.07;4.32;;;;;;;3.90;76.29;99190.19;5068202;28;20178;-73
2022/01/31 02:20:04;;;;;;;16.67;7.55;;;;;;;3.80;76.47;99183.56;5071481;28;20028;-71
2022/01/31 02:22:30;;;;;;;16.58;4.85;;;;;;;3.75;77.34;99186.31;5070743;28;20047;-71
2022/01/31 02:24:55;;;;;;;15.48;5.80;;;;;;;3.70;77.61;99182.16;5067484;28;20040;-71
2022/01/31 02:27:26;;;;;;;16.85;4.63;;;;;;;3.70;78.41;99179.53;5070659;28;20063;-71
2022/01/31 02:29:51;;;;;;;20.55;5.13;;;;;;;3.64;79.21;99173.63;5070957;28;20671;-71
2022/01/31 02:32:20;;;;;;;14.35;4.60;;;;;;;3.62;80.11;99156.31;5069887;28;20178;-73
2022/01/31 02:34:45;;;;;;;22.27;5.45;;;;;;;3.57;80.11;99150.38;5084785;28;20066;-72
2022/01/31 02:37:11;;;;;;;16.98;5.60;;;;;;;3.49;80.64;99142.78;5070418;28;20028;-71
2022/01/31 02:39:36;;;;;;;19.00;5.40;;;;;;;3.41;81.07;99145.63;5071012;28;20047;-72
2022/01/31 02:42:01;;;;;;;19.45;4.97;;;;;;;3.34;81.54;99141.50;5071038;28;20041;-72
2022/01/31 02:44:27;;;;;;;16.52;5.35;;;;;;;3.31;82.25;99122.53;5070837;28;20037;-71
2022/01/31 02:46:54;;;;;;;23.77;5.43;;;;;;;3.28;82.67;99125.22;5066349;28;20036;-72
2022/01/31 02:49:23;;;;;;;14.15;4.60;;;;;;;3.23;82.89;99114.94;5070306;28;20698;-72
2022/01/31 02:51:55;;;;;;;13.90;6.38;;;;;;;3.22;83.33;99116.72;5070810;28;20059;-72
2022/01/31 02:54:20;;;;;;;20.65;6.25;;;;;;;3.18;83.17;99090.78;5071476;28;20043;-73
2022/01/31 02:56:45;;;;;;;14.32;4.85;;;;;;;3.16;83.51;99085.63;5070191;28;20036;-71
2022/01/31 02:59:11;;;;;;;13.88;4.25;;;;;;;3.18;83.92;99077.78;5049871;28;20033;-71
2022/01/31 03:01:37;;;;;;;16.58;4.68;;;;;;;3.20;83.83;99069.00;5051218;28;20059;-71
2022/01/31 03:04:04;;;;;;;13.35;4.50;;;;;;;3.17;83.83;99050.00;5049815;28;20166;-72
2022/01/31 03:06:29;;;;;;;12.52;4.47;;;;;;;3.15;84.62;99064.81;5050044;28;20072;-71
2022/01/31 03:08:55;;;;;;;18.27;4.55;;;;;;;3.14;84.45;99061.38;5051737;28;20084;-71
2022/01/31 03:11:20;;;;;;;9.77;3.55;;;;;;;3.16;84.55;99064.78;5050879;28;20045;-71
2022/01/31 03:13:45;;;;;;;12.25;3.55;;;;;;;3.19;84.41;99046.44;5050738;28;20033;-74
2022/01/31 03:16:11;;;;;;;12.48;3.53;;;;;;;3.20;84.98;99032.53;5064578;28;20029;-71
2022/01/31 03:18:36;;;;;;;11.90;3.70;;;;;;;3.25;84.98;99039.34;5050339;28;20402;-72
2022/01/31 03:21:02;;;;;;;10.48;3.38;;;;;;;3.25;84.88;99040.22;5065625;28;20087;-72
2022/01/31 03:23:27;;;;;;;8.68;4.10;;;;;;;3.21;84.85;99034.25;5058639;28;20540;-73
2022/01/31 03:25:52;;;;;;;12.95;3.63;;;;;;;3.20;85.48;99032.53;5069280;28;20037;-72
2022/01/31 03:28:18;;;;;;;5.72;3.63;;;;;;;3.22;85.33;99032.47;5069611;28;20040;-72
2022/01/31 03:30:43;;;;;;;12.30;4.07;;;;;;;3.23;85.91;99029.84;5069395;28;20051;-71
2022/01/31 03:33:08;;;;;;;9.10;4.63;;;;;;;3.27;86.42;99034.94;5066747;28;20039;-71
2022/01/31 03:35:34;;;;;;;7.13;3.42;;;;;;;3.30;86.44;99027.03;5066712;28;20036;-70
2022/01/31 03:37:59;;;;;;;6.45;3.35;;;;;;;3.36;86.97;99019.88;5069403;28;20033;-70
2022/01/31 03:40:24;;;;;;;7.68;2.85;;;;;;;3.44;87.14;99006.59;5070149;28;20039;-71
2022/01/31 03:42:50;;;;;;;11.45;3.58;;;;;;;3.52;87.21;98996.78;5069477;28;20032;-72
2022/01/31 03:45:15;;;;;;;5.50;2.67;;;;;;;3.58;87.33;99016.56;5069215;28;20066;-72
2022/01/31 03:47:45;;;;;;;12.73;3.88;;;;;;;3.63;86.83;98996.41;5069724;28;20041;-72
2022/01/31 03:50:12;;;;;;;12.65;3.30;;;;;;;3.69;86.70;98995.34;5069624;28;20033;-71
2022/01/31 03:52:38;;;;;;;10.43;4.28;;;;;;;3.75;86.35;98995.16;5069650;28;20055;-73
2022/01/31 03:55:03;;;;;;;7.15;3.30;;;;;;;3.78;86.80;98976.81;5063526;28;20068;-71
2022/01/31 03:57:31;;;;;;;5.50;2.90;;;;;;;3.80;86.47;98986.28;5049566;28;20041;-71
2022/01/31 03:59:56;;;;;;;8.73;3.55;;;;;;;3.84;86.74;98974.00;5050125;28;20037;-72
2022/01/31 04:02:21;;;;;;;7.82;3.80;;;;;;;3.88;87.04;98991.22;5049620;28;20044;-71
2022/01/31 04:04:46;;;;;;;6.82;2.95;;;;;;;3.94;86.95;98985.81;5048671;28;20398;-72
2022/01/31 04:07:12;;;;;;;6.78;2.75;;;;;;;3.98;86.90;98969.13;5049337;28;20039;-72
2022/01/31 04:09:37;;;;;;;5.15;2.92;;;;;;;4.03;87.19;98968.97;5048124;28;20116;-71
2022/01/31 04:12:03;;;;;;;6.82;3.90;;;;;;;4.08;87.38;98985.28;5049555;28;20505;-72
2022/01/31 04:14:28;;;;;;;5.78;3.10;;;;;;;4.12;87.50;98993.88;5049937;28;20076;-71
2022/01/31 04:16:55;;;;;;;6.07;3.08;;;;;;;4.19;87.14;99000.56;5045753;28;20087;-72
2022/01/31 04:19:21;;;;;;;11.35;3.55;;;;;;;4.24;87.04;98989.06;5049352;28;20033;-72
2022/01/31 04:21:47;;;;;;;7.00;3.60;;;;;;;4.28;87.50;98976.75;5048814;28;20108;-71
2022/01/31 04:24:19;;;;;;;10.02;4.30;;;;;;;4.33;87.27;98989.63;5048906;28;20112;-72
2022/01/31 04:26:55;;;;;;;11.77;4.00;;;;;;;4.36;87.06;98981.72;5047854;28;20033;-72
2022/01/31 04:29:20;;;;;;;8.82;3.40;;;;;;;4.41;86.93;98980.63;5048899;28;20071;-71
2022/01/31 04:31:49;;;;;;;10.20;4.53;;;;;;;4.47;86.48;98982.13;5048923;28;20025;-71
2022/01/31 04:34:14;;;;;;;9.90;3.88;;;;;;;4.53;86.36;98992.38;5048890;28;20033;-71
2022/01/31 04:36:40;;;;;;;7.43;3.35;;;;;;;4.56;85.98;98989.63;5047854;28;20770;-71
2022/01/31 04:39:05;;;;;;;11.18;3.45;;;;;;;4.60;85.72;98979.91;5048541;28;20040;-71
2022/01/31 04:41:30;;;;;;;8.13;3.05;;;;;;;4.63;85.46;98974.59;5046281;28;20042;-72
2022/01/31 04:44:01;;;;;;;13.30;4.30;;;;;;;4.67;85.54;98989.22;5049400;28;20099;-72
2022/01/31 04:46:26;;;;;;;5.75;3.22;;;;;;;4.70;85.30;98986.47;5048264;28;20048;-72
2022/01/31 04:48:52;;;;;;;9.07;3.70;;;;;;;4.74;85.65;98988.06;5052724;28;20047;-72
2022/01/31 04:51:17;;;;;;;9.02;3.75;;;;;;;4.76;85.21;98965.38;5047625;28;20104;-72
2022/01/31 04:53:42;;;;;;;16.70;6.00;;;;;;;4.81;85.15;98973.03;5044631;28;20025;-72
2022/01/31 04:56:08;;;;;;;9.77;4.32;;;;;;;4.85;84.83;98975.47;5048217;28;20374;-72
2022/01/31 04:58:33;;;;;;;12.38;4.13;;;;;;;4.88;84.91;98964.91;5049463;28;20064;-72
2022/01/31 05:00:59;;;;;;;7.07;3.25;;;;;;;4.93;83.87;98976.00;5049256;28;20075;-72
2022/01/31 05:03:25;;;;;;;6.18;3.83;;;;;;;4.97;83.78;98970.66;5048582;28;20494;-72
2022/01/31 05:05:50;;;;;;;10.30;4.30;;;;;;;4.98;83.87;98975.84;5048316;28;20048;-72
2022/01/31 05:08:17;;;;;;;7.82;4.57;;;;;;;4.99;83.94;98977.53;5047752;28;20045;-72
2022/01/31 05:10:45;;;;;;;6.43;3.50;;;;;;;5.00;83.61;98960.97;5048339;28;20128;-72
2022/01/31 05:13:13;;;;;;;7.93;3.17;;;;;;;5.01;83.74;98957.41;5054217;28;20115;-73
2022/01/31 05:15:39;;;;;;;10.95;5.18;;;;;;;5.03;83.76;98962.59;5067553;28;20033;-74
2022/01/31 05:18:04;;;;;;;8.82;3.55;;;;;;;5.04;83.10;98961.66;5067726;28;20463;-73
2022/01/31 05:20:30;;;;;;;9.48;3.00;;;;;;;5.07;82.87;98962.41;5068319;28;20029;-72
2022/01/31 05:22:55;;;;;;;7.75;3.35;;;;;;;5.08;82.73;98948.44;5068208;28;20033;-73
2022/01/31 05:25:20;;;;;;;11.30;2.65;;;;;;;5.10;82.38;98945.78;5066906;28;20390;-74
2022/01/31 05:27:46;;;;;;;13.18;3.92;;;;;;;5.10;82.63;98948.38;5068238;28;20036;-73
2022/01/31 05:30:11;;;;;;;9.85;4.40;;;;;;;5.12;82.26;98962.25;5067723;28;20033;-74
2022/01/31 05:32:36;;;;;;;11.02;4.93;;;;;;;5.13;82.26;98963.94;5067169;28;20043;-73
2022/01/31 05:35:04;;;;;;;14.73;4.45;;;;;;;5.12;81.94;98957.84;5066966;28;20111;-73
2022/01/31 05:37:30;;;;;;;13.45;4.18;;;;;;;5.13;81.85;98946.47;5067664;28;20043;-74
2022/01/31 05:39:55;;;;;;;10.10;3.65;;;;;;;5.16;81.69;98950.72;5068106;28;20028;-73
2022/01/31 05:42:21;;;;;;;8.45;3.88;;;;;;;5.19;81.32;98957.59;5068036;28;20128;-72
2022/01/31 05:44:47;;;;;;;9.05;3.35;;;;;;;5.20;80.24;98954.09;5067089;28;20112;-74
2022/01/31 05:47:17;;;;;;;14.02;4.22;;;;;;;5.23;80.32;98962.63;5067389;28;20035;-73
2022/01/31 05:49:42;;;;;;;12.13;4.80;;;;;;;5.27;79.94;98952.94;5067763;28;20037;-73
2022/01/31 05:52:10;;;;;;;16.83;4.57;;;;;;;5.27;79.77;98953.78;5066920;28;20043;-73
2022/01/31 05:54:38;;;;;;;15.07;4.22;;;;;;;5.28;79.26;98946.78;5065580;28;20072;-73
2022/01/31 05:57:05;;;;;;;8.30;3.83;;;;;;;5.27;78.43;98932.03;5068419;28;20032;-73
2022/01/31 05:59:32;;;;;;;14.15;4.22;;;;;;;5.30;78.05;98939.72;5068180;28;20489;-73
2022/01/31 06:01:58;;;;;;;14.38;5.13;;;;;;;5.32;77.77;98933.53;5067291;28;20085;-73
2022/01/31 06:04:27;;;;;;;11.32;3.80;;;;;;;5.34;77.46;98934.31;5067427;28;20032;-72
2022/01/31 06:06:52;;;;;;;13.90;4.18;;;;;;;5.34;76.71;98928.22;5066834;28;20521;-73
2022/01/31 06:09:17;;;;;;;12.02;4.85;;;;;;;5.34;76.16;98918.63;5067349;28;20037;-73
2022/01/31 06:11:45;;;;;;;11.02;3.55;;;;;;;5.36;76.58;98921.16;5062211;28;20032;-72
2022/01/31 06:14:10;;;;;;;11.95;3.63;;;;;;;5.36;77.13;98916.78;5067607;28;20052;-72
2022/01/31 06:16:36;;;;;;;21.42;4.85;;;;;;;5.36;75.70;98916.78;5064862;28;20649;-73
2022/01/31 06:19:02;;;;;;;12.27;4.13;;;;;;;5.38;75.58;98917.56;5067194;28;20051;-72
2022/01/31 06:21:27;;;;;;;11.88;5.20;;;;;;;5.36;75.75;98905.47;5067561;28;20040;-74
2022/01/31 06:23:53;;;;;;;13.07;4.70;;;;;;;5.32;74.48;98899.53;5068401;28;20032;-73
2022/01/31 06:26:20;;;;;;;17.52;5.00;;;;;;;5.36;74.38;98910.72;5066137;28;20037;-73
2022/01/31 06:28:47;;;;;;;14.45;4.55;;;;;;;5.37;74.93;98913.25;5067344;28;20032;-73
2022/01/31 06:31:13;;;;;;;12.07;4.20;;;;;;;5.32;74.05;98910.00;5066935;28;20039;-72
2022/01/31 06:33:38;;;;;;;14.70;3.55;;;;;;;5.35;74.95;98901.19;5067216;28;20024;-72
2022/01/31 06:36:04;;;;;;;17.35;5.78;;;;;;;5.34;74.20;98905.56;5066307;28;20036;-72
2022/01/31 06:38:29;;;;;;;9.93;4.68;;;;;;;5.36;74.54;98908.09;5067471;28;20119;-71
2022/01/31 06:40:55;;;;;;;7.40;3.42;;;;;;;5.34;73.92;98913.41;5067139;28;20060;-71
2022/01/31 06:43:21;;;;;;;8.82;3.60;;;;;;;5.35;74.00;98909.88;5066748;28;20044;-72
2022/01/31 06:45:47;;;;;;;10.10;3.60;;;;;;;5.35;73.75;98899.41;5066109;28;20384;-72
2022/01/31 06:48:12;;;;;;;10.07;4.50;;;;;;;5.34;74.62;98895.09;5066540;28;20025;-72
2022/01/31 06:50:37;;;;;;;14.35;3.50;;;;;;;5.30;74.54;98890.06;5067278;28;20043;-71
2022/01/31 06:53:05;;;;;;;13.48;3.67;;;;;;;5.24;74.65;98900.75;5066596;28;20029;-71
2022/01/31 06:55:33;;;;;;;15.35;3.95;;;;;;;5.16;75.25;98891.47;5066452;28;20036;-72
2022/01/31 06:58:00;;;;;;;17.40;5.32;;;;;;;5.10;75.97;98903.97;5067095;28;20393;-71
2022/01/31 07:00:25;;;;;;;11.35;4.65;;;;;;;5.05;76.80;98903.31;5065878;28;20035;-71
2022/01/31 07:02:51;;;;;;;11.85;3.35;;;;;;;4.99;77.09;98893.94;5068413;28;20036;-72
2022/01/31 07:05:17;;;;;;;11.98;3.40;;;;;;;4.95;77.91;98895.00;5068353;28;20489;-72
2022/01/31 07:07:43;;;;;;;9.90;3.75;;;;;;;4.92;78.55;98897.72;5069339;28;20035;-71
2022/01/31 07:10:10;;;;;;;13.90;3.47;;;;;;;4.86;78.52;98893.59;5070547;28;20033;-71
2022/01/31 07:12:39;;;;;;;16.58;4.70;;;;;;;4.81;78.25;98900.75;5070480;28;20040;-72
2022/01/31 07:15:10;;;;;;;15.43;4.15;;;;;;;4.81;78.88;98902.53;5069677;28;20041;-71
2022/01/31 07:17:37;;;;;;;20.90;6.50;;;;;;;4.77;78.42;98911.38;5070644;28;20036;-72
2022/01/31 07:20:10;;;;;;;7.47;3.40;;;;;;;4.74;79.74;98907.13;5071448;28;20032;-71
2022/01/31 07:22:37;;;;;;;15.18;4.25;;;;;;;4.70;79.44;98923.81;5073865;28;20036;-71
2022/01/31 07:25:08;;;;;;;14.43;3.25;;;;;;;4.65;79.69;98913.59;5074382;28;20029;-73
2022/01/31 07:27:34;;;;;;;16.17;5.32;;;;;;;4.61;80.01;98926.81;5060014;28;20037;-73
2022/01/31 07:30:00;;;;;;;15.25;4.53;;;;;;;4.59;80.39;98924.25;5075734;28;20749;-72
2022/01/31 07:32:27;;;;;;;14.25;4.55;;;;;;;4.54;80.71;98914.91;5072056;28;20044;-72
2022/01/31 07:34:55;;;;;;;12.07;4.97;;;;;;;4.46;80.46;98915.22;5068412;28;20476;-73
2022/01/31 07:37:23;;;;;;;10.38;4.05;;;;;;;4.47;80.90;98917.75;5069797;28;20058;-72
2022/01/31 07:39:48;;;;;;;14.77;3.83;;;;;;;4.45;80.86;98911.72;5070059;28;20493;-72
2022/01/31 07:42:13;;;;;;;16.08;5.00;;;;;;;4.48;80.29;98929.91;5067172;28;20040;-72
2022/01/31 07:44:39;;;;;;;13.60;4.68;;;;;;;4.52;80.25;98925.41;5068009;28;20036;-72
2022/01/31 07:47:05;;;;;;;14.10;4.00;;;;;;;4.52;80.74;98933.22;5069337;28;20063;-71
2022/01/31 07:49:30;;;;;;;13.80;3.90;;;;;;;4.47;79.74;98924.72;5070347;28;20033;-72
2022/01/31 07:51:57;;;;;;;22.60;5.07;;;;;;;4.47;80.75;98932.56;5069672;28;20024;-72
2022/01/31 07:54:23;;;;;;;16.17;4.93;;;;;;;4.40;80.72;98942.38;5069615;28;20093;-71
2022/01/31 07:56:48;;;;;;;15.30;5.57;;;;;;;4.37;81.23;98949.47;5067805;28;20119;-71
2022/01/31 07:59:14;;;;;;;15.57;5.03;;;;;;;4.36;81.23;98951.25;5067810;28;20071;-70
2022/01/31 08:01:40;;;;;;;15.48;3.97;;;;;;;4.29;81.22;98944.53;5069431;28;20036;-72
2022/01/31 08:04:05;;;;;;;12.40;3.95;;;;;;;4.28;81.60;98948.91;5069350;28;20037;-72
2022/01/31 08:06:31;;;;;;;17.80;4.75;;;;;;;4.27;81.13;98955.03;5067788;28;20048;-71
2022/01/31 08:08:56;;;;;;;19.20;6.57;;;;;;;4.26;81.51;98947.28;5068951;28;20036;-72
2022/01/31 08:11:23;;;;;;;11.50;4.60;;;;;;;4.24;81.61;98949.94;5069483;28;20135;-72
2022/01/31 08:13:54;;;;;;;17.58;5.53;;;;;;;4.25;81.92;98967.28;5067750;28;20362;-72
2022/01/31 08:16:20;;;;;;;13.75;3.83;;;;;;;4.25;81.42;98963.81;5067373;28;20089;-71
2022/01/31 08:18:46;;;;;;;17.70;4.93;;;;;;;4.24;81.45;98957.75;5068719;28;20044;-72
2022/01/31 08:21:13;;;;;;;7.63;3.55;;;;;;;4.22;81.88;98956.97;5069450;28;20028;-72
2022/01/31 08:23:39;;;;;;;13.65;4.63;;;;;;;4.24;82.67;98947.31;5069090;28;20497;-71
2022/01/31 08:26:08;;;;;;;13.25;4.47;;;;;;;4.21;81.85;98959.59;5068776;28;20052;-72
2022/01/31 08:28:43;;;;;;;16.77;5.03;;;;;;;4.19;82.05;98958.84;5069463;28;20401;-71
2022/01/31 08:31:42;;;;;;;17.57;6.60;;;;;;;4.18;81.92;98959.72;5066344;28;20039;-71
2022/01/31 08:34:07;;;;;;;18.98;5.13;;;;;;;4.19;82.13;98961.44;5066719;28;20029;-72
2022/01/31 08:36:34;;;;;;;14.38;3.60;;;;;;;4.18;82.51;98955.34;5068289;28;20032;-72
2022/01/31 08:39:20;;;;;;;9.50;4.18;;;;;;;4.20;81.54;98960.53;5068778;28;20024;-72
2022/01/31 08:41:49;;;;;;;21.30;5.38;;;;;;;4.25;82.04;98969.03;5040388;28;20033;-68
2022/01/31 08:44:17;;;;;;;7.72;4.30;;;;;;;4.33;82.40;98963.53;5062195;28;20040;-68
2022/01/31 08:46:45;;;;;;;23.00;6.40;;;;;;;4.33;81.93;98966.13;5067340;28;20066;-70
2022/01/31 08:49:13;;;;;;;17.95;4.85;;;;;;;4.35;81.68;98967.78;5067584;28;20029;-71
2022/01/31 08:51:40;;;;;;;11.38;4.13;;;;;;;4.36;81.55;98961.69;5069190;28;20508;-71
2022/01/31 08:54:08;;;;;;;12.82;3.97;;;;;;;4.29;80.43;98957.59;5069472;28;20067;-70
2022/01/31 08:56:40;;;;;;;14.32;4.68;;;;;;;4.28;81.56;98950.66;5065179;28;20028;-70
2022/01/31 08:59:12;;;;;;;17.17;5.90;;;;;;;4.27;81.26;98960.25;5050038;28;20041;-69
2022/01/31 09:01:38;;;;;;;17.27;4.35;;;;;;;4.25;81.23;98971.66;5058911;28;20401;-69
2022/01/31 09:04:04;;;;;;;9.05;3.60;;;;;;;4.29;81.31;98952.38;5068924;28;20037;-70
2022/01/31 09:06:31;;;;;;;18.65;4.60;;;;;;;4.29;81.04;98963.66;5060138;28;20037;-68
2022/01/31 09:08:58;;;;;;;17.50;4.38;;;;;;;4.30;80.76;98978.38;5047379;28;20033;-69
2022/01/31 09:11:25;;;;;;;16.55;4.70;;;;;;;4.37;81.13;98967.75;5058477;28;20561;-69
2022/01/31 09:13:50;;;;;;;9.07;3.50;;;;;;;4.35;79.70;98967.78;5054969;28;20045;-68
2022/01/31 09:16:16;;;;;;;16.30;5.15;;;;;;;4.31;81.09;98955.78;5037286;28;20033;-71
2022/01/31 09:18:42;;;;;;;10.75;5.30;;;;;;;4.28;80.69;98950.66;5042302;28;20413;-72
2022/01/31 09:21:07;;;;;;;29.67;6.13;;;;;;;4.30;80.39;98961.88;5044250;28;20033;-71
2022/01/31 09:23:33;;;;;;;16.27;4.60;;;;;;;4.28;80.53;98964.56;5042673;28;20037;-71
2022/01/31 09:25:58;;;;;;;19.58;5.00;;;;;;;4.29;80.82;98957.59;5040758;28;20128;-71
2022/01/31 09:28:26;;;;;;;18.50;4.50;;;;;;;4.23;79.82;98960.41;5042270;28;20123;-72
2022/01/31 09:30:53;;;;;;;16.13;4.03;;;;;;;4.20;80.49;98963.13;5041037;28;20037;-73
2022/01/31 09:33:19;;;;;;;22.73;4.90;;;;;;;4.13;81.01;98959.03;5043832;28;20037;-72
2022/01/31 09:35:44;;;;;;;20.38;4.82;;;;;;;4.06;80.90;98966.22;5041979;28;20040;-74
2022/01/31 09:38:13;;;;;;;15.15;4.63;;;;;;;4.05;81.28;98956.72;5041577;28;20127;-71
2022/01/31 09:40:38;;;;;;;24.85;6.07;;;;;;;4.07;81.59;98968.81;5042217;28;20044;-72
2022/01/31 09:48:38;;;;;;;25.50;5.10;;;;;;;4.14;80.91;98942.50;5054528;28;20079;-72
2022/01/31 09:51:20;;;;;;;16.05;5.00;;;;;;;4.17;80.97;98956.28;5050344;28;20070;-71
2022/01/31 09:53:49;;;;;;;30.67;5.10;;;;;;;4.18;81.47;98946.69;5045124;28;20040;-72
2022/01/31 09:56:24;;;;;;;22.10;4.40;;;;;;;4.16;80.70;98948.50;5040161;28;20094;-70
2022/01/31 09:58:53;;;;;;;28.35;14.63;;;;;;;4.21;80.81;98951.78;5041344;28;20144;-71
2022/01/31 10:01:25;;;;;;;15.68;4.72;;;;;;;4.22;81.50;98946.53;5051522;28;20052;-71
2022/01/31 10:03:58;;;;;;;26.10;5.57;;;;;;;4.24;80.45;98949.94;5062169;28;20028;-71
2022/01/31 10:06:27;;;;;;;18.45;6.85;;;;;;;4.25;80.88;98963.81;5053268;28;20126;-70
2022/01/31 10:09:36;;;;;;;24.38;7.75;;;;;;;4.26;80.87;98957.72;5042623;28;20086;-71
2022/01/31 10:12:27;;;;;;;25.13;5.15;;;;;;;4.29;81.03;98981.06;5032085;28;20128;-70
2022/01/31 10:17:39;;;;;;;20.70;4.85;;;;;;;4.30;80.72;98985.38;5059223;28;20031;-72
2022/01/31 10:20:06;;;;;;;19.92;7.03;;;;;;;4.29;79.90;98994.97;5058817;28;20035;-72
2022/01/31 10:22:34;;;;;;;20.77;5.88;;;;;;;4.27;80.03;99002.00;5050480;28;20033;-72
2022/01/31 10:25:06;;;;;;;33.80;4.28;;;;;;;4.30;80.24;99001.03;5041716;28;20068;-72
2022/01/31 10:27:34;;;;;;;16.75;4.18;;;;;;;4.30;79.78;99008.84;5041110;28;20120;-72
2022/01/31 10:30:12;;;;;;;21.13;4.55;;;;;;;4.35;80.24;99016.53;5040183;28;20043;-72
2022/01/31 10:32:40;;;;;;;14.93;5.05;;;;;;;4.34;80.45;99014.81;5042045;28;20037;-71
2022/01/31 10:35:09;;;;;;;18.45;4.93;;;;;;;4.32;80.77;99003.59;5044113;28;20040;-71
2022/01/31 10:37:36;;;;;;;22.08;4.30;;;;;;;4.35;80.61;99029.56;5037904;28;20039;-72
2022/01/31 10:53:54;;;;;;;16.15;4.93;;;;;;;4.34;79.90;99049.59;5058567;28;20033;-71
2022/01/31 10:56:20;;;;;;;17.42;4.38;;;;;;;4.35;79.58;99053.91;5041753;28;20041;-70
2022/01/31 10:59:00;;;;;;;18.80;5.00;;;;;;;4.35;79.91;99040.84;5054341;28;20035;-70
2022/01/31 11:01:27;;;;;;;19.95;5.13;;;;;;;4.38;79.14;99034.66;5057576;28;20098;-69
2022/01/31 11:03:54;;;;;;;21.55;5.53;;;;;;;4.43;79.58;99037.97;5066246;28;20032;-70
2022/01/31 11:06:20;;;;;;;22.90;4.60;;;;;;;4.42;78.77;99041.47;5067335;28;20948;-71
2022/01/31 11:08:47;;;;;;;19.90;5.35;;;;;;;4.45;78.57;99046.59;5050974;28;20706;-71
2022/01/31 11:11:12;;;;;;;22.27;6.95;;;;;;;4.42;78.12;99052.78;5060767;28;20041;-70
2022/01/31 11:13:38;;;;;;;18.40;5.28;;;;;;;4.47;78.48;99031.72;5067037;28;20401;-70
2022/01/31 11:16:06;;;;;;;17.10;5.10;;;;;;;4.52;78.57;99032.41;5054495;28;20040;-71
2022/01/31 11:18:33;;;;;;;32.60;5.45;;;;;;;4.52;78.55;99038.47;5078485;28;20036;-71
2022/01/31 11:21:03;;;;;;;24.02;7.03;;;;;;;4.61;78.38;99047.75;5068341;28;20505;-71
2022/01/31 11:23:29;;;;;;;13.38;4.72;;;;;;;4.61;78.25;99039.91;5068245;28;20646;-70
2022/01/31 11:26:00;;;;;;;16.30;5.63;;;;;;;4.61;78.05;99037.31;5062332;28;20036;-71
2022/01/31 11:28:30;;;;;;;30.73;8.77;;;;;;;4.62;77.76;99038.16;5053817;28;20127;-70
2022/01/31 11:30:56;;;;;;;22.17;5.78;;;;;;;4.66;77.89;99050.19;5047973;28;20040;-71
2022/01/31 11:33:22;;;;;;;26.63;6.10;;;;;;;4.67;77.67;99071.00;5046448;28;20041;-71
2022/01/31 11:35:48;;;;;;;35.47;6.75;;;;;;;4.71;77.47;99059.53;5047456;28;20116;-72
2022/01/31 11:38:16;;;;;;;36.65;7.75;;;;;;;4.67;77.33;99073.59;5048661;28;20093;-70
2022/01/31 11:40:42;;;;;;;25.40;6.55;;;;;;;4.59;77.35;99065.22;5049880;28;20035;-70
2022/01/31 11:43:08;;;;;;;17.50;6.60;;;;;;;4.63;77.32;99079.03;5048729;28;20032;-72
2022/01/31 11:45:39;;;;;;;22.40;7.32;;;;;;;4.63;77.81;99079.03;5046996;28;20056;-72
2022/01/31 11:48:09;;;;;;;22.42;7.93;;;;;;;4.57;76.79;99087.06;5047249;28;20040;-71
2022/01/31 11:50:46;;;;;;;32.60;9.10;;;;;;;4.56;78.39;99091.44;5049069;28;20041;-72
2022/01/31 11:53:13;;;;;;;32.65;6.13;;;;;;;4.54;78.27;99093.25;5031342;28;20040;-71
2022/01/31 11:55:39;;;;;;;20.13;6.32;;;;;;;4.57;78.99;99100.13;5047044;28;20525;-71
2022/01/31 11:58:17;;;;;;;33.10;7.50;;;;;;;4.59;78.81;99106.97;5046788;28;20537;-71